createdAt,value
2017-11-06T00:29:34.884Z,1010.68
2017-11-06T00:30:34.895Z,1010.64
2017-11-06T00:32:28.289Z,1010.62
2017-11-06T00:33:28.250Z,1010.64
2017-11-06T00:34:28.265Z,1010.65
2017-11-06T00:35:28.251Z,1010.71
2017-11-06T00:36:28.287Z,1010.75
2017-11-06T00:37:28.263Z,1010.74
2017-11-06T00:38:28.265Z,1010.74
2017-11-06T00:39:28.304Z,1010.77
2017-11-06T00:40:28.271Z,1010.79
2017-11-06T00:41:29.361Z,1010.84
2017-11-06T00:42:28.285Z,1010.86
2017-11-06T00:43:28.293Z,1010.86
2017-11-06T00:44:28.291Z,1010.86
2017-11-06T00:45:28.304Z,1010.89
2017-11-06T00:46:28.312Z,1010.90
2017-11-06T00:47:28.366Z,1010.92
2017-11-06T00:48:28.333Z,1010.99
2017-11-06T00:49:28.348Z,1011.00
2017-11-06T00:50:28.329Z,1010.97
2017-11-06T00:51:29.398Z,1010.94
2017-11-06T00:52:28.342Z,1011.02
2017-11-06T00:53:28.384Z,1010.99
2017-11-06T00:54:28.349Z,1011.00
2017-11-06T00:55:28.394Z,1011.01
2017-11-06T00:56:28.369Z,1011.13
2017-11-06T00:57:29.431Z,1011.10
2017-11-06T00:58:28.384Z,1011.11
2017-11-06T00:59:29.445Z,1011.11
2017-11-06T01:00:28.378Z,1011.09
2017-11-06T01:01:29.468Z,1011.08
2017-11-06T01:02:28.388Z,1011.10
2017-11-06T01:03:33.367Z,1011.04
2017-11-06T01:04:28.409Z,1011.05
2017-11-06T01:05:28.490Z,1011.07
2017-11-06T01:06:28.423Z,1011.02
2017-11-06T01:07:28.488Z,1011.08
2017-11-06T01:08:28.417Z,1011.00
2017-11-06T01:09:28.501Z,1011.02
2017-11-06T01:10:28.439Z,1010.98
2017-11-06T01:11:29.552Z,1010.99
2017-11-06T01:12:28.442Z,1011.10
2017-11-06T01:13:28.540Z,1011.08
2017-11-06T01:14:28.442Z,1011.13
2017-11-06T01:15:29.558Z,1011.14
2017-11-06T01:16:28.452Z,1011.10
2017-11-06T01:17:28.535Z,1011.10
2017-11-06T01:18:28.465Z,1011.14
2017-11-06T01:19:28.529Z,1011.14
2017-11-06T01:20:28.479Z,1011.19
2017-11-06T01:21:28.544Z,1011.16
2017-11-06T01:22:28.498Z,1011.18
2017-11-06T01:23:28.567Z,1011.18
2017-11-06T01:24:28.504Z,1011.17
2017-11-06T01:25:28.576Z,1011.16
2017-11-06T01:26:28.510Z,1011.13
2017-11-06T01:27:28.583Z,1011.18
2017-11-06T01:28:28.517Z,1011.27
2017-11-06T01:29:28.596Z,1011.27
2017-11-06T01:30:28.532Z,1011.23
2017-11-06T01:31:28.619Z,1011.30
2017-11-06T01:32:28.550Z,1011.21
2017-11-06T01:33:28.620Z,1011.18
2017-11-06T01:34:28.552Z,1011.23
2017-11-06T01:35:28.641Z,1011.22
2017-11-06T01:36:28.556Z,1011.30
2017-11-06T01:37:28.652Z,1011.33
2017-11-06T01:38:28.574Z,1011.31
2017-11-06T01:39:28.669Z,1011.30
2017-11-06T01:40:28.581Z,1011.33
2017-11-06T01:41:28.679Z,1011.40
2017-11-06T01:42:28.585Z,1011.35
2017-11-06T01:43:28.698Z,1011.32
2017-11-06T01:44:28.606Z,1011.34
2017-11-06T01:45:28.717Z,1011.37
2017-11-06T01:46:28.610Z,1011.34
2017-11-06T01:47:28.728Z,1011.39
2017-11-06T01:48:28.611Z,1011.43
2017-11-06T01:49:29.688Z,1011.45
2017-11-06T01:50:28.627Z,1011.42
2017-11-06T01:51:29.710Z,1011.38
2017-11-06T01:52:28.646Z,1011.40
2017-11-06T01:53:29.708Z,1011.37
2017-11-06T01:54:28.659Z,1011.40
2017-11-06T01:55:28.682Z,1011.41
2017-11-06T01:56:28.661Z,1011.40
2017-11-06T01:57:28.705Z,1011.49
2017-11-06T01:58:28.671Z,1011.42
2017-11-06T01:59:35.377Z,1011.45
2017-11-06T02:00:28.681Z,1011.44
2017-11-06T02:01:28.756Z,1011.41
2017-11-06T02:02:28.703Z,1011.42
2017-11-06T02:03:28.740Z,1011.41
2017-11-06T02:04:28.698Z,1011.42
2017-11-06T02:05:28.755Z,1011.40
2017-11-06T02:06:28.705Z,1011.41
2017-11-06T02:07:29.791Z,1011.43
2017-11-06T02:08:28.716Z,1011.41
2017-11-06T02:09:29.815Z,1011.42
2017-11-06T02:10:28.732Z,1011.47
2017-11-06T02:11:29.819Z,1011.45
2017-11-06T02:12:28.729Z,1011.49
2017-11-06T02:13:28.818Z,1011.48
2017-11-06T02:14:28.743Z,1011.50
2017-11-06T02:15:33.442Z,1011.55
2017-11-06T02:16:28.758Z,1011.53
2017-11-06T02:17:28.856Z,1011.52
2017-11-06T02:18:28.763Z,1011.49
2017-11-06T02:19:29.869Z,1011.53
2017-11-06T02:20:28.776Z,1011.54
2017-11-06T02:21:28.877Z,1011.55
2017-11-06T02:22:28.790Z,1011.55
2017-11-06T02:23:28.882Z,1011.61
2017-11-06T02:24:28.794Z,1011.55
2017-11-06T02:25:29.920Z,1011.66
2017-11-06T02:26:28.809Z,1011.67
2017-11-06T02:27:30.854Z,1011.65
2017-11-06T02:28:28.819Z,1011.65
2017-11-06T02:29:30.877Z,1011.62
2017-11-06T02:30:28.826Z,1011.63
2017-11-06T02:31:29.860Z,1011.65
2017-11-06T02:32:28.838Z,1011.71
2017-11-06T02:33:29.872Z,1011.65
2017-11-06T02:34:28.848Z,1011.66
2017-11-06T02:35:28.961Z,1011.70
2017-11-06T02:36:28.855Z,1011.69
2017-11-06T02:37:29.904Z,1011.71
2017-11-06T02:38:28.872Z,1011.70
2017-11-06T02:39:29.900Z,1011.72
2017-11-06T02:40:28.868Z,1011.71
2017-11-06T02:41:28.892Z,1011.77
2017-11-06T02:42:28.903Z,1011.74
2017-11-06T02:43:34.944Z,1011.75
2017-11-06T02:44:28.890Z,1011.84
2017-11-06T02:45:29.940Z,1011.81
2017-11-06T02:46:28.894Z,1011.81
2017-11-06T02:47:28.942Z,1011.80
2017-11-06T02:48:28.919Z,1011.77
2017-11-06T02:49:28.957Z,1011.78
2017-11-06T02:50:28.927Z,1011.80
2017-11-06T02:51:28.964Z,1011.73
2017-11-06T02:52:28.934Z,1011.79
2017-11-06T02:53:29.998Z,1011.81
2017-11-06T02:54:28.953Z,1011.86
2017-11-06T02:55:28.983Z,1011.82
2017-11-06T02:56:28.960Z,1011.80
2017-11-06T02:57:30.027Z,1011.75
2017-11-06T02:58:28.955Z,1011.79
2017-11-06T02:59:30.041Z,1011.81
2017-11-06T03:00:28.962Z,1011.83
2017-11-06T03:01:39.884Z,1011.85
2017-11-06T03:02:28.981Z,1011.88
2017-11-06T03:03:30.058Z,1011.92
2017-11-06T03:04:28.987Z,1011.90
2017-11-06T03:05:33.974Z,1011.86
2017-11-06T03:06:28.996Z,1011.95
2017-11-06T03:07:29.080Z,1011.91
2017-11-06T03:08:29.008Z,1011.93
2017-11-06T03:09:30.105Z,1011.93
2017-11-06T03:10:29.035Z,1011.90
2017-11-06T03:11:30.124Z,1011.91
2017-11-06T03:12:29.018Z,1011.92
2017-11-06T03:13:30.137Z,1011.89
2017-11-06T03:14:29.030Z,1011.95
2017-11-06T03:15:30.146Z,1011.86
2017-11-06T03:16:29.042Z,1011.93
2017-11-06T03:17:34.969Z,1011.93
2017-11-06T03:18:29.044Z,1011.97
2017-11-06T03:19:29.168Z,1011.97
2017-11-06T03:20:29.061Z,1011.99
2017-11-06T03:21:34.904Z,1011.97
2017-11-06T03:22:29.077Z,1011.99
2017-11-06T03:23:29.178Z,1012.04
2017-11-06T03:24:29.076Z,1012.08
2017-11-06T03:25:31.143Z,1012.08
2017-11-06T03:26:29.099Z,1012.06
2017-11-06T03:27:31.147Z,1012.11
2017-11-06T03:28:29.103Z,1012.11
2017-11-06T03:29:52.936Z,1012.10
2017-11-06T03:30:29.109Z,1012.12
2017-11-06T03:31:39.947Z,1012.17
2017-11-06T03:32:29.121Z,1012.18
2017-11-06T03:33:29.209Z,1012.16
2017-11-06T03:34:29.150Z,1012.26
2017-11-06T03:35:29.231Z,1012.34
2017-11-06T03:36:29.128Z,1012.34
2017-11-06T03:37:29.260Z,1012.27
2017-11-06T03:38:29.137Z,1012.36
2017-11-06T03:39:29.246Z,1012.33
2017-11-06T03:40:29.150Z,1012.37
2017-11-06T03:41:29.264Z,1012.41
2017-11-06T03:42:29.168Z,1012.43
2017-11-06T03:43:30.199Z,1012.39
2017-11-06T03:44:29.194Z,1012.42
2017-11-06T03:45:30.213Z,1012.41
2017-11-06T03:46:29.197Z,1012.42
2017-11-06T03:47:31.248Z,1012.44
2017-11-06T03:48:29.184Z,1012.47
2017-11-06T03:49:29.215Z,1012.51
2017-11-06T03:50:29.210Z,1012.52
2017-11-06T03:51:29.224Z,1012.47
2017-11-06T03:52:29.208Z,1012.56
2017-11-06T03:53:29.236Z,1012.59
2017-11-06T03:54:29.212Z,1012.54
2017-11-06T03:55:31.400Z,1012.66
2017-11-06T03:56:29.236Z,1012.62
2017-11-06T03:57:30.289Z,1012.62
2017-11-06T03:58:29.246Z,1012.65
2017-11-06T03:59:30.301Z,1012.70
2017-11-06T04:00:29.251Z,1012.70
2017-11-06T04:01:33.904Z,1012.74
2017-11-06T04:02:29.261Z,1012.77
2017-11-06T04:03:31.376Z,1012.74
2017-11-06T04:04:29.253Z,1012.80
2017-11-06T04:05:31.368Z,1012.87
2017-11-06T04:06:29.265Z,1012.84
2017-11-06T04:07:29.360Z,1012.92
2017-11-06T04:08:29.273Z,1012.92
2017-11-06T04:09:29.357Z,1012.96
2017-11-06T04:10:29.327Z,1012.98
2017-11-06T04:11:30.388Z,1012.97
2017-11-06T04:12:29.307Z,1013.01
2017-11-06T04:13:29.398Z,1012.99
2017-11-06T04:14:29.313Z,1012.97
2017-11-06T04:15:30.413Z,1012.99
2017-11-06T04:16:29.315Z,1013.00
2017-11-06T04:17:30.457Z,1013.01
2017-11-06T04:18:29.346Z,1012.93
2017-11-06T04:19:45.007Z,1012.96
2017-11-06T04:20:29.329Z,1012.98
2017-11-06T04:21:33.954Z,1012.99
2017-11-06T04:22:29.336Z,1012.95
2017-11-06T04:23:39.917Z,1012.95
2017-11-06T04:24:29.365Z,1012.99
2017-11-06T04:25:31.425Z,1013.06
2017-11-06T04:26:29.365Z,1013.00
2017-11-06T04:27:30.470Z,1013.00
2017-11-06T04:28:29.364Z,1013.03
2017-11-06T04:29:29.393Z,1013.06
2017-11-06T04:30:29.387Z,1013.11
2017-11-06T04:31:35.456Z,1013.09
2017-11-06T04:32:29.375Z,1013.19
2017-11-06T04:33:29.423Z,1013.20
2017-11-06T04:34:29.401Z,1013.17
2017-11-06T04:35:29.436Z,1013.19
2017-11-06T04:36:29.411Z,1013.20
2017-11-06T04:37:30.464Z,1013.27
2017-11-06T04:38:29.412Z,1013.19
2017-11-06T04:39:29.474Z,1013.19
2017-11-06T04:40:29.429Z,1013.17
2017-11-06T04:41:29.489Z,1013.23
2017-11-06T04:42:29.437Z,1013.20
2017-11-06T04:43:31.540Z,1013.18
2017-11-06T04:44:29.452Z,1013.21
2017-11-06T04:45:29.496Z,1013.23
2017-11-06T04:46:29.491Z,1013.21
2017-11-06T04:47:30.534Z,1013.19
2017-11-06T04:48:29.452Z,1013.18
2017-11-06T04:49:29.540Z,1013.18
2017-11-06T04:50:29.455Z,1013.16
2017-11-06T04:51:34.489Z,1013.19
2017-11-06T04:52:29.469Z,1013.17
2017-11-06T04:53:29.563Z,1013.23
2017-11-06T04:54:29.504Z,1013.33
2017-11-06T04:55:31.530Z,1013.37
2017-11-06T04:56:29.494Z,1013.42
2017-11-06T04:57:29.592Z,1013.35
2017-11-06T04:58:29.494Z,1013.38
2017-11-06T04:59:29.620Z,1013.44
2017-11-06T05:00:29.516Z,1013.46
2017-11-06T05:01:30.645Z,1013.50
2017-11-06T05:02:29.520Z,1013.50
2017-11-06T05:03:31.570Z,1013.57
2017-11-06T05:04:29.537Z,1013.54
2017-11-06T05:05:30.555Z,1013.57
2017-11-06T05:06:29.536Z,1013.60
2017-11-06T05:07:30.565Z,1013.60
2017-11-06T05:08:29.582Z,1013.63
2017-11-06T05:09:30.587Z,1013.62
2017-11-06T05:10:29.565Z,1013.59
2017-11-06T05:11:29.578Z,1013.58
2017-11-06T05:12:29.559Z,1013.59
2017-11-06T05:13:31.627Z,1013.61
2017-11-06T05:14:29.563Z,1013.70
2017-11-06T05:15:34.405Z,1013.78
2017-11-06T05:16:29.567Z,1013.73
2017-11-06T05:17:41.486Z,1013.74
2017-11-06T05:18:29.599Z,1013.73
2017-11-06T05:19:30.649Z,1013.78
2017-11-06T05:20:29.604Z,1013.69
2017-11-06T05:21:30.659Z,1013.82
2017-11-06T05:22:29.592Z,1013.80
2017-11-06T05:23:36.427Z,1013.81
2017-11-06T05:24:29.620Z,1013.86
2017-11-06T05:25:46.460Z,1013.82
2017-11-06T05:26:29.627Z,1013.86
2017-11-06T05:27:30.718Z,1013.89
2017-11-06T05:28:29.629Z,1013.84
2017-11-06T05:29:29.706Z,1013.92
2017-11-06T05:30:29.628Z,1013.93
2017-11-06T05:31:31.751Z,1013.94
2017-11-06T05:32:29.640Z,1013.90
2017-11-06T05:33:34.443Z,1013.93
2017-11-06T05:34:29.679Z,1013.94
2017-11-06T05:35:30.760Z,1013.95
2017-11-06T05:36:29.662Z,1013.97
2017-11-06T05:37:29.758Z,1014.03
2017-11-06T05:38:29.680Z,1014.06
2017-11-06T05:39:30.783Z,1014.04
2017-11-06T05:40:29.690Z,1013.99
2017-11-06T05:41:30.708Z,1014.02
2017-11-06T05:42:29.676Z,1014.05
2017-11-06T05:43:30.809Z,1014.05
2017-11-06T05:44:29.701Z,1014.05
2017-11-06T05:45:30.735Z,1014.04
2017-11-06T05:46:29.709Z,1014.07
2017-11-06T05:47:44.477Z,1014.11
2017-11-06T05:48:29.739Z,1014.04
2017-11-06T05:49:29.837Z,1014.07
2017-11-06T05:50:29.723Z,1014.15
2017-11-06T05:51:34.447Z,1014.11
2017-11-06T05:52:29.726Z,1014.15
2017-11-06T05:53:30.785Z,1014.20
2017-11-06T05:54:29.739Z,1014.21
2017-11-06T05:55:31.818Z,1014.28
2017-11-06T05:56:29.780Z,1014.25
2017-11-06T05:57:29.804Z,1014.28
2017-11-06T05:58:29.753Z,1014.32
2017-11-06T05:59:30.816Z,1014.32
2017-11-06T06:00:29.769Z,1014.30
2017-11-06T06:01:35.440Z,1014.33
2017-11-06T06:02:29.775Z,1014.31
2017-11-06T06:03:35.453Z,1014.32
2017-11-06T06:04:29.773Z,1014.34
2017-11-06T06:05:31.897Z,1014.37
2017-11-06T06:06:29.805Z,1014.41
2017-11-06T06:07:29.843Z,1014.36
2017-11-06T06:08:29.789Z,1014.41
2017-11-06T06:09:29.867Z,1014.33
2017-11-06T06:10:29.825Z,1014.35
2017-11-06T06:11:29.908Z,1014.37
2017-11-06T06:12:29.813Z,1014.35
2017-11-06T06:13:35.428Z,1014.34
2017-11-06T06:14:29.826Z,1014.38
2017-11-06T06:15:31.865Z,1014.44
2017-11-06T06:16:29.879Z,1014.47
2017-11-06T06:17:35.459Z,1014.49
2017-11-06T06:18:29.894Z,1014.56
2017-11-06T07:10:14.530Z,1015.27
2017-11-06T07:11:14.508Z,1015.21
2017-11-06T07:12:14.540Z,1015.31
2017-11-06T07:13:14.517Z,1015.28
2017-11-06T07:14:14.559Z,1015.33
2017-11-06T07:15:14.525Z,1015.29
2017-11-06T07:16:14.548Z,1015.31
2017-11-06T07:17:14.542Z,1015.37
2017-11-06T07:18:14.534Z,1015.40
2017-11-06T07:19:14.588Z,1015.38
2017-11-06T07:20:14.541Z,1015.37
2017-11-06T07:21:14.607Z,1015.37
2017-11-06T07:22:14.554Z,1015.39
2017-11-06T07:23:14.613Z,1015.40
2017-11-06T07:24:14.602Z,1015.44
2017-11-06T07:25:14.626Z,1015.45
2017-11-06T07:26:14.604Z,1015.47
2017-11-06T07:27:14.642Z,1015.50
2017-11-06T07:28:14.576Z,1015.50
2017-11-06T07:29:14.652Z,1015.50
2017-11-06T07:30:14.585Z,1015.57
2017-11-06T07:31:14.667Z,1015.56
2017-11-06T07:32:14.585Z,1015.54
2017-11-06T07:33:14.684Z,1015.58
2017-11-06T07:34:14.640Z,1015.60
2017-11-06T07:35:14.699Z,1015.56
2017-11-06T07:36:14.599Z,1015.59
2017-11-06T07:37:14.726Z,1015.62
2017-11-06T07:38:14.622Z,1015.61
2017-11-06T07:39:14.723Z,1015.60
2017-11-06T07:40:14.611Z,1015.64
2017-11-06T07:41:14.633Z,1015.62
2017-11-06T07:42:14.616Z,1015.66
2017-11-06T07:43:14.643Z,1015.72
2017-11-06T07:44:14.634Z,1015.69
2017-11-06T07:45:14.684Z,1015.75
2017-11-06T07:46:14.655Z,1015.78
2017-11-06T07:47:14.676Z,1015.78
2017-11-06T07:48:14.644Z,1015.74
2017-11-06T07:49:15.717Z,1015.80
2017-11-06T07:50:14.678Z,1015.81
2017-11-06T07:51:14.708Z,1015.87
2017-11-06T07:52:14.657Z,1015.92
2017-11-06T07:53:14.711Z,1015.97
2017-11-06T07:54:14.668Z,1015.99
2017-11-06T07:55:15.761Z,1016.04
2017-11-06T07:56:14.677Z,1015.97
2017-11-06T07:57:14.738Z,1016.01
2017-11-06T07:58:14.690Z,1015.99
2017-11-06T07:59:14.762Z,1016.01
2017-11-06T08:00:14.683Z,1016.02
2017-11-06T08:01:14.775Z,1016.02
2017-11-06T08:02:14.698Z,1016.03
2017-11-06T08:03:14.780Z,1016.08
2017-11-06T08:04:14.702Z,1016.05
2017-11-06T08:05:14.795Z,1016.10
2017-11-06T08:06:14.702Z,1016.11
2017-11-06T08:07:14.856Z,1016.15
2017-11-06T08:08:14.721Z,1016.12
2017-11-06T08:09:14.797Z,1016.06
2017-11-06T08:10:14.716Z,1016.09
2017-11-06T08:11:14.790Z,1016.16
2017-11-06T08:12:14.722Z,1016.10
2017-11-06T08:13:14.880Z,1016.12
2017-11-06T08:14:14.732Z,1016.14
2017-11-06T08:15:14.819Z,1016.20
2017-11-06T08:16:14.747Z,1016.16
2017-11-06T08:17:14.900Z,1016.19
2017-11-06T08:18:14.764Z,1016.18
2017-11-06T08:19:14.857Z,1016.21
2017-11-06T08:20:14.755Z,1016.28
2017-11-06T08:21:14.871Z,1016.28
2017-11-06T08:22:14.769Z,1016.30
2017-11-06T08:23:14.876Z,1016.30
2017-11-06T08:24:14.785Z,1016.32
2017-11-06T08:25:14.783Z,1016.34
2017-11-06T08:26:14.778Z,1016.36
2017-11-06T08:27:14.805Z,1016.34
2017-11-06T08:28:14.783Z,1016.32
2017-11-06T08:29:15.836Z,1016.40
2017-11-06T08:30:14.781Z,1016.37
2017-11-06T08:31:14.832Z,1016.41
2017-11-06T08:32:14.800Z,1016.38
2017-11-06T08:33:16.887Z,1016.42
2017-11-06T08:34:14.802Z,1016.39
2017-11-06T08:35:14.858Z,1016.41
2017-11-06T08:36:14.820Z,1016.39
2017-11-06T08:37:14.865Z,1016.37
2017-11-06T08:38:14.827Z,1016.45
2017-11-06T08:39:14.881Z,1016.46
2017-11-06T08:40:14.819Z,1016.43
2017-11-06T08:41:14.890Z,1016.46
2017-11-06T08:42:14.842Z,1016.50
2017-11-06T08:43:14.905Z,1016.49
2017-11-06T08:44:14.853Z,1016.48
2017-11-06T08:45:14.927Z,1016.51
2017-11-06T08:46:14.843Z,1016.46
2017-11-06T08:47:14.933Z,1016.50
2017-11-06T08:48:14.852Z,1016.54
2017-11-06T08:49:14.950Z,1016.53
2017-11-06T08:50:14.865Z,1016.42
2017-11-06T08:51:14.956Z,1016.45
2017-11-06T08:52:14.901Z,1016.43
2017-11-06T08:53:14.973Z,1016.48
2017-11-06T08:54:14.867Z,1016.45
2017-11-06T08:55:14.982Z,1016.45
2017-11-06T08:56:14.879Z,1016.48
2017-11-06T08:57:14.896Z,1016.49
2017-11-06T08:58:14.883Z,1016.50
2017-11-06T08:59:14.909Z,1016.47
2017-11-06T09:00:14.896Z,1016.49
2017-11-06T09:01:14.932Z,1016.46
2017-11-06T09:02:14.897Z,1016.46
2017-11-06T09:03:14.944Z,1016.54
2017-11-06T09:04:14.914Z,1016.51
2017-11-06T09:05:14.956Z,1016.55
2017-11-06T09:06:14.917Z,1016.56
2017-11-06T09:07:14.977Z,1016.59
2017-11-06T09:08:14.916Z,1016.66
2017-11-06T09:09:14.992Z,1016.66
2017-11-06T09:10:14.924Z,1016.66
2017-11-06T09:11:15.005Z,1016.67
2017-11-06T09:12:14.939Z,1016.67
2017-11-06T09:13:15.031Z,1016.71
2017-11-06T09:14:14.940Z,1016.72
2017-11-06T09:15:15.026Z,1016.71
2017-11-06T09:16:14.949Z,1016.72
2017-11-06T09:17:15.040Z,1016.73
2017-11-06T09:18:14.970Z,1016.74
2017-11-06T09:19:15.112Z,1016.80
2017-11-06T09:20:14.961Z,1016.76
2017-11-06T09:21:15.069Z,1016.83
2017-11-06T09:22:14.976Z,1016.84
2017-11-06T09:23:15.080Z,1016.84
2017-11-06T09:24:14.975Z,1016.91
2017-11-06T09:25:15.095Z,1016.94
2017-11-06T09:26:14.982Z,1016.90
2017-11-06T09:27:15.004Z,1016.90
2017-11-06T09:28:14.989Z,1016.90
2017-11-06T09:29:15.017Z,1016.93
2017-11-06T09:30:14.997Z,1016.94
2017-11-06T09:31:15.030Z,1016.94
2017-11-06T09:32:15.008Z,1016.94
2017-11-06T09:33:15.042Z,1017.02
2017-11-06T09:34:15.027Z,1016.95
2017-11-06T09:35:16.100Z,1016.97
2017-11-06T09:36:15.025Z,1017.03
2017-11-06T09:37:15.073Z,1017.02
2017-11-06T09:38:15.024Z,1016.99
2017-11-06T09:39:15.096Z,1017.11
2017-11-06T09:40:15.029Z,1017.08
2017-11-06T09:41:15.122Z,1017.07
2017-11-06T09:42:15.035Z,1017.10
2017-11-06T09:43:15.119Z,1017.07
2017-11-06T09:44:15.044Z,1017.09
2017-11-06T09:45:15.071Z,1017.11
2017-11-06T09:46:15.048Z,1017.15
2017-11-06T09:47:15.086Z,1017.12
2017-11-06T09:48:15.063Z,1017.14
2017-11-06T09:49:16.126Z,1017.17
2017-11-06T09:50:15.070Z,1017.17
2017-11-06T09:51:15.111Z,1017.15
2017-11-06T09:52:15.081Z,1017.20
2017-11-06T09:53:15.130Z,1017.14
2017-11-06T09:54:15.087Z,1017.16
2017-11-06T09:55:17.192Z,1017.18
2017-11-06T09:56:15.086Z,1017.17
2017-11-06T09:57:16.178Z,1017.19
2017-11-06T09:58:15.113Z,1017.13
2017-11-06T09:59:15.175Z,1017.22
2017-11-06T10:00:15.104Z,1017.21
2017-11-06T10:01:15.184Z,1017.22
2017-11-06T10:02:15.111Z,1017.24
2017-11-06T10:03:15.198Z,1017.26
2017-11-06T10:05:15.218Z,1017.26
2017-11-06T10:06:15.129Z,1017.26
2017-11-06T10:07:15.234Z,1017.25
2017-11-06T10:08:15.136Z,1017.28
2017-11-06T10:09:15.250Z,1017.25
2017-11-06T10:10:15.131Z,1017.20
2017-11-06T10:11:15.157Z,1017.23
2017-11-06T10:12:15.144Z,1017.24
2017-11-06T10:13:15.174Z,1017.24
2017-11-06T10:14:15.143Z,1017.24
2017-11-06T10:15:15.188Z,1017.25
2017-11-06T10:16:15.156Z,1017.27
2017-11-06T10:17:15.221Z,1017.26
2017-11-06T10:18:15.163Z,1017.29
2017-11-06T10:19:15.217Z,1017.27
2017-11-06T10:20:15.170Z,1017.28
2017-11-06T10:21:15.228Z,1017.27
2017-11-06T10:22:15.179Z,1017.31
2017-11-06T10:23:15.239Z,1017.28
2017-11-06T10:24:15.182Z,1017.30
2017-11-06T10:25:15.254Z,1017.31
2017-11-06T10:26:15.214Z,1017.37
2017-11-06T10:27:15.266Z,1017.38
2017-11-06T10:28:15.204Z,1017.35
2017-11-06T10:29:15.281Z,1017.35
2017-11-06T10:30:15.204Z,1017.32
2017-11-06T10:31:15.300Z,1017.35
2017-11-06T10:32:15.221Z,1017.34
2017-11-06T10:33:16.330Z,1017.34
2017-11-06T10:34:15.222Z,1017.38
2017-11-06T10:35:15.325Z,1017.34
2017-11-06T10:36:15.226Z,1017.34
2017-11-06T10:37:15.334Z,1017.31
2017-11-06T10:38:15.238Z,1017.38
2017-11-06T10:39:15.349Z,1017.39
2017-11-06T10:40:15.242Z,1017.40
2017-11-06T10:41:15.260Z,1017.38
2017-11-06T10:42:15.255Z,1017.39
2017-11-06T10:43:15.275Z,1017.46
2017-11-06T10:44:15.254Z,1017.47
2017-11-06T10:45:15.288Z,1017.43
2017-11-06T10:46:15.261Z,1017.47
2017-11-06T10:47:15.304Z,1017.44
2017-11-06T10:48:15.271Z,1017.44
2017-11-06T10:49:15.313Z,1017.44
2017-11-06T10:50:15.277Z,1017.40
2017-11-06T10:51:15.329Z,1017.44
2017-11-06T10:52:15.286Z,1017.42
2017-11-06T10:53:15.344Z,1017.40
2017-11-06T10:54:15.293Z,1017.46
2017-11-06T10:55:15.364Z,1017.40
2017-11-06T10:56:15.302Z,1017.44
2017-11-06T10:57:15.374Z,1017.39
2017-11-06T10:58:15.334Z,1017.46
2017-11-06T10:59:15.387Z,1017.45
2017-11-06T11:00:15.311Z,1017.46
2017-11-06T11:01:15.409Z,1017.44
2017-11-06T11:02:15.321Z,1017.49
2017-11-06T11:03:15.409Z,1017.52
2017-11-06T11:04:15.331Z,1017.50
2017-11-06T11:05:15.433Z,1017.52
2017-11-06T11:06:15.342Z,1017.50
2017-11-06T11:07:15.438Z,1017.54
2017-11-06T11:08:15.341Z,1017.48
2017-11-06T11:09:20.229Z,1017.54
2017-11-06T11:10:15.348Z,1017.55
2017-11-06T11:11:15.434Z,1017.57
2017-11-06T11:12:15.360Z,1017.56
2017-11-06T11:13:15.445Z,1017.59
2017-11-06T11:14:15.363Z,1017.53
2017-11-06T11:15:16.377Z,1017.57
2017-11-06T11:16:15.384Z,1017.53
2017-11-06T11:17:15.471Z,1017.52
2017-11-06T11:18:15.374Z,1017.51
2017-11-06T11:19:22.244Z,1017.49
2017-11-06T11:20:15.383Z,1017.58
2017-11-06T11:21:16.449Z,1017.58
2017-11-06T11:22:15.392Z,1017.52
2017-11-06T11:23:15.442Z,1017.51
2017-11-06T11:24:15.411Z,1017.53
2017-11-06T11:25:15.458Z,1017.52
2017-11-06T11:26:15.403Z,1017.52
2017-11-06T11:27:15.467Z,1017.52
2017-11-06T11:28:15.413Z,1017.46
2017-11-06T11:29:15.485Z,1017.49
2017-11-06T11:30:15.432Z,1017.50
2017-11-06T11:31:15.495Z,1017.42
2017-11-06T11:32:15.425Z,1017.47
2017-11-06T11:33:15.506Z,1017.50
2017-11-06T11:34:15.445Z,1017.46
2017-11-06T11:35:15.522Z,1017.40
2017-11-06T11:36:15.442Z,1017.44
2017-11-06T11:37:15.532Z,1017.48
2017-11-06T11:38:15.460Z,1017.47
2017-11-06T11:39:15.548Z,1017.47
2017-11-06T11:40:15.463Z,1017.47
2017-11-06T11:41:15.560Z,1017.51
2017-11-06T11:42:15.465Z,1017.52
2017-11-06T11:43:15.578Z,1017.50
2017-11-06T11:44:15.493Z,1017.49
2017-11-06T11:45:15.588Z,1017.56
2017-11-06T11:46:15.480Z,1017.55
2017-11-06T11:47:15.500Z,1017.55
2017-11-06T11:48:15.486Z,1017.53
2017-11-06T11:49:15.524Z,1017.54
2017-11-06T11:50:15.498Z,1017.56
2017-11-06T11:51:15.530Z,1017.56
2017-11-06T11:52:15.501Z,1017.58
2017-11-06T11:53:15.545Z,1017.56
2017-11-06T11:54:15.509Z,1017.60
2017-11-06T11:55:15.557Z,1017.67
2017-11-06T11:56:15.512Z,1017.63
2017-11-06T11:57:15.581Z,1017.63
2017-11-06T11:58:15.559Z,1017.67
2017-11-06T11:59:15.585Z,1017.69
2017-11-06T12:00:15.530Z,1017.61
2017-11-06T12:01:15.599Z,1017.67
2017-11-06T12:02:15.538Z,1017.68
2017-11-06T12:03:15.616Z,1017.71
2017-11-06T12:04:15.542Z,1017.63
2017-11-06T12:05:15.626Z,1017.74
2017-11-06T12:06:15.557Z,1017.70
2017-11-06T12:07:15.635Z,1017.67
2017-11-06T12:08:15.560Z,1017.66
2017-11-06T12:09:15.650Z,1017.73
2017-11-06T12:10:15.566Z,1017.68
2017-11-06T12:11:15.662Z,1017.69
2017-11-06T12:12:15.577Z,1017.71
2017-11-06T12:13:15.680Z,1017.72
2017-11-06T12:14:15.578Z,1017.69
2017-11-06T12:15:15.693Z,1017.72
2017-11-06T12:16:15.593Z,1017.68
2017-11-06T12:17:15.702Z,1017.74
2017-11-06T12:18:15.594Z,1017.70
2017-11-06T12:19:15.623Z,1017.70
2017-11-06T12:20:15.606Z,1017.75
2017-11-06T12:21:15.633Z,1017.70
2017-11-06T12:22:15.622Z,1017.76
2017-11-06T12:23:15.640Z,1017.74
2017-11-06T12:24:15.622Z,1017.73
2017-11-06T12:25:16.658Z,1017.74
2017-11-06T12:26:15.635Z,1017.73
2017-11-06T12:27:20.250Z,1017.76
2017-11-06T12:28:15.627Z,1017.68
2017-11-06T12:29:21.188Z,1017.70
2017-11-06T12:30:15.641Z,1017.64
2017-11-06T12:31:21.202Z,1017.68
2017-11-06T12:32:15.650Z,1017.64
2017-11-06T12:33:28.280Z,1017.67
2017-11-06T12:34:15.656Z,1017.69
2017-11-06T12:35:15.802Z,1017.68
2017-11-06T12:36:15.677Z,1017.71
2017-11-06T12:37:17.757Z,1017.71
2017-11-06T12:38:15.685Z,1017.67
2017-11-06T12:39:15.740Z,1017.71
2017-11-06T12:40:15.696Z,1017.70
2017-11-06T12:41:40.723Z,1017.69
2017-11-06T12:42:15.690Z,1017.68
2017-11-06T12:43:15.688Z,1017.74
2017-11-06T12:44:22.721Z,1017.67
2017-11-06T12:45:15.701Z,1017.70
2017-11-06T12:46:17.826Z,1017.71
2017-11-06T12:47:15.712Z,1017.67
2017-11-06T12:48:21.725Z,1017.68
2017-11-06T12:49:15.728Z,1017.71
2017-11-06T12:50:31.776Z,1017.72
2017-11-06T12:51:15.727Z,1017.69
2017-11-06T12:52:22.777Z,1017.67
2017-11-06T12:53:15.752Z,1017.74
2017-11-06T12:54:16.860Z,1017.75
2017-11-06T12:55:15.747Z,1017.70
2017-11-06T12:56:22.726Z,1017.71
2017-11-06T12:57:15.744Z,1017.71
2017-11-06T12:58:27.732Z,1017.70
2017-11-06T12:59:15.771Z,1017.72
2017-11-06T13:00:15.868Z,1017.75
2017-11-06T13:01:15.788Z,1017.71
2017-11-06T13:02:28.927Z,1017.76
2017-11-06T13:03:15.763Z,1017.77
2017-11-06T15:52:32.183Z,1018.90
2017-11-06T15:53:32.120Z,1018.91
2017-11-06T15:54:32.127Z,1018.86
2017-11-06T15:55:33.189Z,1018.89
2017-11-06T15:56:32.125Z,1018.89
2017-11-06T15:57:32.184Z,1018.87
2017-11-06T15:58:32.140Z,1018.89
2017-11-06T15:59:33.222Z,1018.87
2017-11-06T16:00:32.146Z,1018.93
2017-11-06T16:01:32.153Z,1018.92
2017-11-06T16:02:32.195Z,1018.87
2017-11-06T16:03:32.157Z,1018.88
2017-11-06T16:04:32.161Z,1018.92
2017-11-06T16:05:32.167Z,1018.96
2017-11-06T16:06:32.177Z,1018.89
2017-11-06T16:07:32.175Z,1018.88
2017-11-06T16:08:32.176Z,1018.95
2017-11-06T16:09:32.197Z,1019.01
2017-11-06T16:10:32.184Z,1018.92
2017-11-06T16:11:32.191Z,1018.92
2017-11-06T16:12:32.198Z,1018.97
2017-11-06T16:13:32.195Z,1019.02
2017-11-06T16:14:32.206Z,1019.02
2017-11-06T16:15:32.362Z,1018.99